createdAt,value
2022-11-13T00:00:35.618Z,7.60
2022-11-13T00:01:35.630Z,7.10
2022-11-13T00:02:35.731Z,7.00
2022-11-13T00:03:35.661Z,7.00
2022-11-13T00:04:35.677Z,6.60
2022-11-13T00:05:35.692Z,6.40
2022-11-13T00:06:35.811Z,7.00
2022-11-13T00:07:35.726Z,6.90
2022-11-13T00:08:35.737Z,7.50
2022-11-13T00:09:35.870Z,7.00
2022-11-13T00:10:35.767Z,6.70
2022-11-13T00:11:35.785Z,6.70
2022-11-13T00:12:35.798Z,6.80
2022-11-13T00:13:35.813Z,6.40
2022-11-13T00:14:35.829Z,7.60
2022-11-13T00:15:35.845Z,6.90
2022-11-13T00:16:35.862Z,8.10
2022-11-13T00:17:35.877Z,6.90
2022-11-13T00:18:35.891Z,7.20
2022-11-13T00:19:35.908Z,6.90
2022-11-13T00:20:35.923Z,6.50
2022-11-13T00:21:35.941Z,6.70
2022-11-13T00:22:35.951Z,7.10
2022-11-13T00:23:35.971Z,6.70
2022-11-13T00:24:35.984Z,6.70
2022-11-13T00:25:36.110Z,6.80
2022-11-13T00:26:36.013Z,6.80
2022-11-13T00:27:36.028Z,6.70
2022-11-13T00:28:36.045Z,7.10
2022-11-13T00:29:36.086Z,6.40
2022-11-13T00:30:36.077Z,6.80
2022-11-13T00:31:36.090Z,6.30
2022-11-13T00:32:36.108Z,6.70
2022-11-13T00:34:05.322Z,6.10
2022-11-13T00:34:51.516Z,6.50
2022-11-13T00:35:36.154Z,7.00
2022-11-13T00:36:36.169Z,6.30
2022-11-13T00:37:36.186Z,6.60
2022-11-13T00:38:36.197Z,6.30
2022-11-13T00:39:36.215Z,6.10
2022-11-13T00:40:36.230Z,6.60
2022-11-13T00:41:36.359Z,6.60
2022-11-13T00:42:36.262Z,6.30
2022-11-13T00:43:36.277Z,6.60
2022-11-13T00:44:36.293Z,6.60
2022-11-13T00:45:36.307Z,6.20
2022-11-13T00:46:36.326Z,6.20
2022-11-13T00:47:36.339Z,6.10
2022-11-13T00:48:36.353Z,6.10
2022-11-13T00:49:36.368Z,5.90
2022-11-13T00:50:36.383Z,6.10
2022-11-13T00:51:36.399Z,6.10
2022-11-13T00:52:36.421Z,5.90
2022-11-13T00:53:36.432Z,7.00
2022-11-13T00:54:36.446Z,5.50
2022-11-13T00:55:36.459Z,5.70
2022-11-13T00:56:36.475Z,5.70
2022-11-13T00:57:36.602Z,5.90
2022-11-13T00:58:36.505Z,5.70
2022-11-13T00:59:36.525Z,5.60
2022-11-13T01:00:36.538Z,6.30
2022-11-13T01:01:36.643Z,6.10
2022-11-13T01:02:36.569Z,6.70
2022-11-13T01:03:36.583Z,5.20
2022-11-13T01:04:36.598Z,5.60
2022-11-13T01:05:36.615Z,6.20
2022-11-13T01:06:36.658Z,6.10
2022-11-13T01:07:36.645Z,6.10
2022-11-13T01:08:36.666Z,5.40
2022-11-13T01:09:36.674Z,5.70
2022-11-13T01:10:36.690Z,5.10
2022-11-13T01:11:36.706Z,5.80
2022-11-13T01:12:36.720Z,5.60
2022-11-13T01:13:36.855Z,5.70
2022-11-13T01:14:36.753Z,5.10
2022-11-13T01:15:36.768Z,5.00
2022-11-13T01:16:36.782Z,5.70
2022-11-13T01:17:36.799Z,5.20
2022-11-13T01:18:36.814Z,5.00
2022-11-13T01:19:36.839Z,5.70
2022-11-13T01:20:36.844Z,5.60
2022-11-13T01:21:36.858Z,5.40
2022-11-13T01:22:36.876Z,4.90
2022-11-13T01:23:36.889Z,5.40
2022-11-13T01:24:36.905Z,5.00
2022-11-13T01:25:36.922Z,5.00
2022-11-13T01:26:36.935Z,4.90
2022-11-13T01:27:36.953Z,4.60
2022-11-13T01:28:36.968Z,6.20
2022-11-13T01:29:37.093Z,4.80
2022-11-13T01:30:36.997Z,4.70
2022-11-13T01:31:37.013Z,5.50
2022-11-13T01:32:37.029Z,5.90
2022-11-13T01:33:37.044Z,5.00
2022-11-13T01:34:37.059Z,5.00
2022-11-13T01:35:37.074Z,4.60
2022-11-13T01:36:37.089Z,4.70
2022-11-13T01:37:37.103Z,4.70
2022-11-13T01:38:37.625Z,4.40
2022-11-13T01:39:37.135Z,4.80
2022-11-13T01:40:37.153Z,6.00
2022-11-13T01:41:37.165Z,5.30
2022-11-13T01:42:37.180Z,4.80
2022-11-13T01:43:37.195Z,4.50
2022-11-13T01:44:37.211Z,4.80
2022-11-13T01:45:37.345Z,4.60
2022-11-13T01:46:37.240Z,4.80
2022-11-13T01:47:37.257Z,4.00
2022-11-13T01:48:37.272Z,5.00
2022-11-13T01:49:37.288Z,4.40
2022-11-13T01:50:37.303Z,4.60
2022-11-13T01:51:37.319Z,4.40
2022-11-13T01:52:37.336Z,4.90
2022-11-13T01:53:37.367Z,4.40
2022-11-13T01:54:37.364Z,4.80
2022-11-13T01:55:37.379Z,4.30
2022-11-13T01:56:37.395Z,4.10
2022-11-13T01:57:37.413Z,4.30
2022-11-13T01:58:37.426Z,4.60
2022-11-13T01:59:37.439Z,4.40
2022-11-13T02:00:37.454Z,4.40
2022-11-13T02:01:37.641Z,4.00
2022-11-13T02:02:38.091Z,4.30
2022-11-13T02:03:37.503Z,4.40
2022-11-13T02:04:37.514Z,4.20
2022-11-13T02:05:37.532Z,4.00
2022-11-13T02:06:37.603Z,4.90
2022-11-13T02:07:37.560Z,4.20
2022-11-13T02:08:37.576Z,4.30
2022-11-13T02:09:37.593Z,4.10
2022-11-13T02:10:37.607Z,4.40
2022-11-13T02:11:37.623Z,4.00
2022-11-13T02:12:37.640Z,3.80
2022-11-13T02:13:37.655Z,3.80
2022-11-13T02:14:37.668Z,4.30
2022-11-13T02:15:37.684Z,4.00
2022-11-13T02:16:37.697Z,3.90
2022-11-13T02:17:37.824Z,3.90
2022-11-13T02:18:37.729Z,3.90
2022-11-13T02:19:37.744Z,3.90
2022-11-13T02:20:37.759Z,4.00
2022-11-13T02:21:37.775Z,4.40
2022-11-13T02:22:37.789Z,3.90
2022-11-13T02:23:37.804Z,4.00
2022-11-13T02:24:38.891Z,3.90
2022-11-13T02:25:37.834Z,3.60
2022-11-13T02:26:37.852Z,4.10
2022-11-13T02:27:37.867Z,3.80
2022-11-13T02:28:37.881Z,3.80
2022-11-13T02:29:37.903Z,3.70
2022-11-13T02:30:37.910Z,4.10
2022-11-13T02:31:37.926Z,3.80
2022-11-13T02:32:37.943Z,3.40
2022-11-13T02:33:38.070Z,3.70
2022-11-13T02:34:37.976Z,3.40
2022-11-13T02:35:37.987Z,3.70
2022-11-13T02:36:38.003Z,4.10
2022-11-13T02:37:38.019Z,4.10
2022-11-13T02:38:38.037Z,3.70
2022-11-13T02:39:38.046Z,3.40
2022-11-13T02:40:38.064Z,3.70
2022-11-13T02:41:38.081Z,4.20
2022-11-13T02:42:38.094Z,3.80
2022-11-13T02:43:38.110Z,4.00
2022-11-13T02:44:38.124Z,3.40
2022-11-13T02:45:38.140Z,4.00
2022-11-13T02:46:38.154Z,3.20
2022-11-13T02:47:38.171Z,4.30
2022-11-13T02:48:38.185Z,3.70
2022-11-13T02:49:38.319Z,3.70
2022-11-13T02:50:38.220Z,3.50
2022-11-13T02:51:38.229Z,3.50
2022-11-13T02:52:38.288Z,3.40
2022-11-13T02:53:38.262Z,3.90
2022-11-13T02:54:38.276Z,3.50
2022-11-13T02:55:38.290Z,3.50
2022-11-13T02:56:38.305Z,3.50
2022-11-13T02:57:38.322Z,4.10
2022-11-13T02:58:38.338Z,3.40
2022-11-13T02:59:38.351Z,3.50
2022-11-13T03:00:38.366Z,3.70
2022-11-13T03:01:38.441Z,3.10
2022-11-13T03:02:38.397Z,4.00
2022-11-13T03:03:57.137Z,3.50
2022-11-13T03:05:05.210Z,3.70
2022-11-13T03:05:38.556Z,3.80
2022-11-13T03:06:38.517Z,3.30
2022-11-13T03:07:38.473Z,4.20
2022-11-13T03:08:38.742Z,3.50
2022-11-13T03:09:38.504Z,3.50
2022-11-13T03:10:38.518Z,3.50
2022-11-13T03:11:38.533Z,3.20
2022-11-13T03:12:38.551Z,3.40
2022-11-13T03:13:38.564Z,4.20
2022-11-13T03:14:38.577Z,3.10
2022-11-13T03:15:38.594Z,3.30
2022-11-13T03:16:38.607Z,3.30
2022-11-13T03:17:38.624Z,3.40
2022-11-13T03:18:38.641Z,4.10
2022-11-13T03:19:38.653Z,4.00
2022-11-13T03:20:38.671Z,3.60
2022-11-13T03:21:38.798Z,3.50
2022-11-13T03:22:38.700Z,4.00
2022-11-13T03:23:38.716Z,3.50
2022-11-13T03:24:38.735Z,3.60
2022-11-13T03:25:38.744Z,3.50
2022-11-13T03:26:38.761Z,3.60
2022-11-13T03:27:38.785Z,3.30
2022-11-13T03:28:38.790Z,4.90
2022-11-13T03:29:38.810Z,3.80
2022-11-13T03:30:38.822Z,4.60
2022-11-13T03:31:38.836Z,3.50
2022-11-13T03:32:38.852Z,3.60
2022-11-13T03:33:38.867Z,3.60
2022-11-13T03:34:38.880Z,4.10
2022-11-13T03:35:45.484Z,3.50
2022-11-13T03:36:38.910Z,3.60
2022-11-13T03:37:39.079Z,3.90
2022-11-13T03:38:38.942Z,3.80
2022-11-13T03:39:38.955Z,3.20
2022-11-13T03:40:38.971Z,3.70
2022-11-13T03:41:38.985Z,3.40
2022-11-13T03:42:39.002Z,3.60
2022-11-13T03:43:39.018Z,3.50
2022-11-13T03:44:39.031Z,3.70
2022-11-13T03:45:39.048Z,4.90
2022-11-13T03:46:39.063Z,3.90
2022-11-13T03:47:39.078Z,3.60
2022-11-13T03:48:39.091Z,4.20
2022-11-13T03:49:39.108Z,4.00
2022-11-13T03:50:44.310Z,3.50
2022-11-13T03:51:39.138Z,3.80
2022-11-13T03:52:39.161Z,4.30
2022-11-13T03:53:39.284Z,4.30
2022-11-13T03:54:39.181Z,4.30
2022-11-13T03:55:39.199Z,3.90
2022-11-13T03:56:39.213Z,3.90
2022-11-13T03:57:39.228Z,4.70
2022-11-13T03:58:40.485Z,4.60
2022-11-13T03:59:39.259Z,3.30
2022-11-13T04:00:39.275Z,4.80
2022-11-13T04:01:39.361Z,3.30
2022-11-13T04:02:39.303Z,3.30
2022-11-13T04:03:39.319Z,3.70
2022-11-13T04:04:39.333Z,3.80
2022-11-13T04:05:39.349Z,3.50
2022-11-13T04:06:39.425Z,3.90
2022-11-13T04:07:39.379Z,4.30
2022-11-13T04:08:39.392Z,3.70
2022-11-13T04:09:39.525Z,4.10
2022-11-13T04:10:39.422Z,3.40
2022-11-13T04:11:39.438Z,3.40
2022-11-13T04:12:39.455Z,4.20
2022-11-13T04:13:39.468Z,4.30
2022-11-13T04:14:39.483Z,4.00
2022-11-13T04:15:39.500Z,3.30
2022-11-13T04:16:39.515Z,3.70
2022-11-13T04:17:39.531Z,4.10
2022-11-13T04:18:39.544Z,3.30
2022-11-13T04:19:39.558Z,4.10
2022-11-13T04:20:39.574Z,4.50
2022-11-13T04:21:39.591Z,4.40
2022-11-13T04:22:39.603Z,3.70
2022-11-13T04:23:39.620Z,3.60
2022-11-13T04:24:39.635Z,3.20
2022-11-13T04:25:39.770Z,4.00
2022-11-13T04:26:39.666Z,4.70
2022-11-13T04:27:39.681Z,3.80
2022-11-13T04:28:39.694Z,3.90
2022-11-13T04:29:39.709Z,3.70
2022-11-13T04:30:39.723Z,3.90
2022-11-13T04:31:39.740Z,3.40
2022-11-13T04:32:39.759Z,4.00
2022-11-13T04:33:39.770Z,3.30
2022-11-13T04:34:39.784Z,3.90
2022-11-13T04:35:39.799Z,3.40
2022-11-13T04:36:39.814Z,3.60
2022-11-13T04:37:39.831Z,3.40
2022-11-13T04:38:39.844Z,3.40
2022-11-13T04:39:39.857Z,3.50
2022-11-13T04:40:39.874Z,3.80
2022-11-13T04:41:40.008Z,3.40
2022-11-13T04:42:39.904Z,3.20
2022-11-13T04:43:39.921Z,3.60
2022-11-13T04:44:39.935Z,3.30
2022-11-13T04:45:39.951Z,3.60
2022-11-13T04:46:39.964Z,4.10
2022-11-13T04:47:39.978Z,4.10
2022-11-13T04:48:39.995Z,3.50
2022-11-13T04:49:40.011Z,3.90
2022-11-13T04:50:40.026Z,3.80
2022-11-13T04:51:40.039Z,3.90
2022-11-13T04:52:40.053Z,3.80
2022-11-13T04:53:40.069Z,3.90
2022-11-13T04:54:40.085Z,3.30
2022-11-13T04:55:40.100Z,3.50
2022-11-13T04:56:40.114Z,3.30
2022-11-13T04:57:40.247Z,3.70
2022-11-13T04:58:40.145Z,3.90
2022-11-13T04:59:40.158Z,4.10
2022-11-13T05:00:40.175Z,4.40
2022-11-13T05:01:40.226Z,3.20
2022-11-13T05:02:40.215Z,3.10
2022-11-13T05:03:40.220Z,3.60
2022-11-13T05:04:40.239Z,3.30
2022-11-13T05:05:40.272Z,3.30
2022-11-13T05:06:40.305Z,3.60
2022-11-13T05:07:40.279Z,3.50
2022-11-13T05:08:40.294Z,3.30
2022-11-13T05:09:40.308Z,3.20
2022-11-13T05:10:40.325Z,3.50
2022-11-13T05:11:40.340Z,3.90
2022-11-13T05:12:40.354Z,3.30
2022-11-13T05:13:40.484Z,3.20
2022-11-13T05:14:40.381Z,3.70
2022-11-13T05:15:40.399Z,4.00
2022-11-13T05:16:40.414Z,3.40
2022-11-13T05:17:40.429Z,3.80
2022-11-13T05:18:40.442Z,4.10
2022-11-13T05:19:40.458Z,3.60
2022-11-13T05:20:40.474Z,3.20
2022-11-13T05:21:40.488Z,3.00
2022-11-13T05:22:40.502Z,4.00
2022-11-13T05:23:40.519Z,3.60
2022-11-13T05:24:40.532Z,3.20
2022-11-13T05:25:40.551Z,4.10
2022-11-13T05:26:40.563Z,3.40
2022-11-13T05:27:40.576Z,4.50
2022-11-13T05:28:40.596Z,3.70
2022-11-13T05:29:40.719Z,3.10
2022-11-13T05:30:40.624Z,2.80
2022-11-13T05:31:40.639Z,3.70
2022-11-13T05:32:40.653Z,3.80
2022-11-13T05:33:40.669Z,3.00
2022-11-13T05:34:40.688Z,3.70
2022-11-13T05:35:40.699Z,3.20
2022-11-13T05:36:40.713Z,3.90
2022-11-13T05:37:40.729Z,3.30
2022-11-13T05:38:40.744Z,3.80
2022-11-13T05:39:40.757Z,3.50
2022-11-13T05:40:40.771Z,3.50
2022-11-13T05:41:40.787Z,3.30
2022-11-13T05:42:40.800Z,3.10
2022-11-13T05:43:40.820Z,3.80
2022-11-13T05:44:40.833Z,3.40
2022-11-13T05:45:40.960Z,2.90
2022-11-13T05:46:40.864Z,3.30
2022-11-13T05:47:40.877Z,3.90
2022-11-13T05:48:40.890Z,3.40
2022-11-13T05:49:40.910Z,3.10
2022-11-13T05:50:40.932Z,3.10
2022-11-13T05:51:40.937Z,3.30
2022-11-13T05:52:40.958Z,3.30
2022-11-13T05:53:40.974Z,3.30
2022-11-13T05:54:40.981Z,3.20
2022-11-13T05:55:40.998Z,2.50
2022-11-13T05:56:41.012Z,4.00
2022-11-13T05:57:41.027Z,2.90
2022-11-13T05:58:41.049Z,2.80
2022-11-13T05:59:41.055Z,3.10
2022-11-13T06:00:41.072Z,4.00
2022-11-13T06:01:41.212Z,3.40
2022-11-13T06:02:41.102Z,2.90
2022-11-13T06:03:41.118Z,3.00
2022-11-13T06:04:41.130Z,2.70
2022-11-13T06:05:41.148Z,3.10
2022-11-13T06:06:41.203Z,3.50
2022-11-13T06:07:41.176Z,3.80
2022-11-13T06:08:41.189Z,2.80
2022-11-13T06:09:41.206Z,3.40
2022-11-13T06:10:41.224Z,3.80
2022-11-13T06:11:41.234Z,3.10
2022-11-13T06:12:41.253Z,2.60
2022-11-13T06:13:41.267Z,3.10
2022-11-13T06:14:41.281Z,4.80
2022-11-13T06:15:41.296Z,3.20
2022-11-13T06:16:41.311Z,2.60
2022-11-13T06:17:41.437Z,2.70
2022-11-13T06:18:41.343Z,3.40
2022-11-13T06:19:41.355Z,4.10
2022-11-13T06:20:41.371Z,2.80
2022-11-13T06:21:41.385Z,3.10
2022-11-13T06:22:41.399Z,3.30
2022-11-13T06:23:41.415Z,3.20
2022-11-13T06:24:41.428Z,2.60
2022-11-13T06:25:41.444Z,3.40
2022-11-13T06:26:41.464Z,2.60
2022-11-13T06:27:41.474Z,3.30
2022-11-13T06:28:41.495Z,2.80
2022-11-13T06:29:41.504Z,2.50
2022-11-13T06:30:41.521Z,3.60
2022-11-13T06:31:41.533Z,2.60
2022-11-13T06:32:41.553Z,2.80
2022-11-13T06:33:41.681Z,2.60
2022-11-13T06:34:41.581Z,2.60
2022-11-13T06:35:41.593Z,3.20
2022-11-13T06:36:41.608Z,2.40
2022-11-13T06:37:41.627Z,3.20
2022-11-13T06:38:41.678Z,3.40
2022-11-13T06:39:41.653Z,2.50
2022-11-13T06:40:41.668Z,2.90
2022-11-13T06:41:41.682Z,3.10
2022-11-13T06:42:41.697Z,3.40
2022-11-13T06:43:41.714Z,3.30
2022-11-13T06:44:41.732Z,2.40
2022-11-13T06:45:41.743Z,2.90
2022-11-13T06:46:41.757Z,2.50
2022-11-13T06:47:41.773Z,2.50
2022-11-13T06:48:41.787Z,3.20
2022-11-13T06:49:41.916Z,2.60
2022-11-13T06:50:47.159Z,3.60
2022-11-13T06:51:41.833Z,3.20
2022-11-13T06:52:41.847Z,3.30
2022-11-13T06:53:41.864Z,3.00
2022-11-13T06:54:41.885Z,2.30
2022-11-13T06:55:41.896Z,2.80
2022-11-13T06:56:41.908Z,2.60
2022-11-13T06:57:41.921Z,2.50
2022-11-13T06:58:41.937Z,3.00
2022-11-13T06:59:41.951Z,2.60
2022-11-13T07:00:42.101Z,2.40
2022-11-13T07:01:41.983Z,2.70
2022-11-13T07:02:41.994Z,2.80
2022-11-13T07:03:42.011Z,2.70
2022-11-13T07:04:42.028Z,4.10
2022-11-13T07:05:42.151Z,2.60
2022-11-13T07:06:42.136Z,3.00
2022-11-13T07:07:42.072Z,2.40
2022-11-13T07:08:42.087Z,2.60
2022-11-13T07:09:42.108Z,2.90
2022-11-13T07:10:42.117Z,2.30
2022-11-13T07:11:42.134Z,2.40
2022-11-13T07:12:42.146Z,2.90
2022-11-13T07:13:42.160Z,2.30
2022-11-13T07:14:42.175Z,2.90
2022-11-13T07:15:42.191Z,3.00
2022-11-13T07:17:07.471Z,2.10
2022-11-13T07:17:42.223Z,2.20
2022-11-13T07:18:42.235Z,2.80
2022-11-13T07:19:42.249Z,2.20
2022-11-13T07:20:42.264Z,2.40
2022-11-13T07:21:42.391Z,2.80
2022-11-13T07:22:42.295Z,2.30
2022-11-13T07:23:42.309Z,2.40
2022-11-13T07:24:42.324Z,2.80
2022-11-13T07:25:42.338Z,2.50
2022-11-13T07:26:42.354Z,2.90
2022-11-13T07:27:42.369Z,2.40
2022-11-13T07:28:42.383Z,3.30
2022-11-13T07:29:42.400Z,2.20
2022-11-13T07:30:42.414Z,3.00
2022-11-13T07:31:42.448Z,2.70
2022-11-13T07:32:42.443Z,3.30
2022-11-13T07:33:42.458Z,2.30
2022-11-13T07:34:42.475Z,2.80
2022-11-13T07:35:42.487Z,4.00
2022-11-13T07:36:42.504Z,2.80
2022-11-13T07:37:42.633Z,2.50
2022-11-13T07:38:42.531Z,2.20
2022-11-13T07:39:42.549Z,2.30
2022-11-13T07:40:42.563Z,2.40
2022-11-13T07:41:42.579Z,2.20
2022-11-13T07:42:42.591Z,2.30
2022-11-13T07:43:42.608Z,2.40
2022-11-13T07:44:58.125Z,2.40
2022-11-13T07:45:42.637Z,2.90
2022-11-13T07:46:42.650Z,2.10
2022-11-13T07:47:42.664Z,2.20
2022-11-13T07:48:42.682Z,2.40
2022-11-13T07:49:42.700Z,2.60
2022-11-13T07:50:42.711Z,2.20
2022-11-13T07:51:42.724Z,2.30
2022-11-13T07:52:42.740Z,2.70
2022-11-13T07:53:42.866Z,3.00
2022-11-13T07:54:42.768Z,2.80
2022-11-13T07:55:42.787Z,2.60
2022-11-13T07:56:42.800Z,2.20
2022-11-13T07:57:42.815Z,2.90
2022-11-13T07:58:42.829Z,2.50
2022-11-13T07:59:42.845Z,2.50
2022-11-13T08:00:42.912Z,2.40
2022-11-13T08:01:42.873Z,2.50
2022-11-13T08:02:42.887Z,2.00
2022-11-13T08:03:42.904Z,2.20
2022-11-13T08:04:42.917Z,3.30
2022-11-13T08:05:42.932Z,2.60
2022-11-13T08:06:43.016Z,2.60
2022-11-13T08:07:46.095Z,2.40
2022-11-13T08:08:42.977Z,2.50
2022-11-13T08:09:43.103Z,2.10
2022-11-13T08:10:43.009Z,2.30
2022-11-13T08:11:43.025Z,2.50
2022-11-13T08:12:43.037Z,2.70
2022-11-13T08:13:43.054Z,2.70
2022-11-13T08:14:43.065Z,2.40
2022-11-13T08:15:43.080Z,3.50
2022-11-13T08:16:43.096Z,2.40
2022-11-13T08:17:43.112Z,2.30
2022-11-13T08:18:43.126Z,2.40
2022-11-13T08:19:43.140Z,2.30
2022-11-13T08:20:43.153Z,2.80
2022-11-13T08:21:43.169Z,1.90
2022-11-13T08:22:43.183Z,2.60
2022-11-13T08:23:43.200Z,2.30
2022-11-13T08:24:43.215Z,2.50
2022-11-13T08:25:43.344Z,2.40
2022-11-13T08:26:43.245Z,2.00
2022-11-13T08:27:43.260Z,2.10
2022-11-13T08:28:43.274Z,2.10
2022-11-13T08:29:43.290Z,2.60
2022-11-13T08:30:43.305Z,2.00
2022-11-13T08:31:43.319Z,2.10
2022-11-13T08:32:43.334Z,2.20
2022-11-13T08:33:43.349Z,2.00
2022-11-13T08:34:43.368Z,2.20
2022-11-13T08:35:43.378Z,2.00
2022-11-13T08:36:43.393Z,2.30
2022-11-13T08:37:43.408Z,3.00
2022-11-13T08:38:43.423Z,2.60
2022-11-13T08:39:43.434Z,2.50
2022-11-13T08:40:43.453Z,2.10
2022-11-13T08:41:43.578Z,2.50
2022-11-13T08:42:43.481Z,2.30
2022-11-13T08:43:43.497Z,2.40
2022-11-13T08:44:43.511Z,3.00
2022-11-13T08:45:43.533Z,2.50
2022-11-13T08:46:43.541Z,2.00
2022-11-13T08:47:43.560Z,2.00
2022-11-13T08:48:43.568Z,2.50
2022-11-13T08:49:43.586Z,3.10
2022-11-13T08:50:43.599Z,2.10
2022-11-13T08:51:43.613Z,2.50
2022-11-13T08:52:43.630Z,2.20
2022-11-13T08:53:43.644Z,2.90
2022-11-13T08:54:43.660Z,2.10
2022-11-13T08:55:43.674Z,2.20
2022-11-13T08:56:43.686Z,2.30
2022-11-13T08:57:43.822Z,2.00
2022-11-13T08:58:43.717Z,2.90
2022-11-13T08:59:43.731Z,2.50
2022-11-13T09:00:43.749Z,3.10
2022-11-13T09:01:43.764Z,2.10
2022-11-13T09:02:43.776Z,3.10
2022-11-13T09:03:43.833Z,2.60
2022-11-13T09:04:43.805Z,2.80
2022-11-13T09:05:43.822Z,2.30
2022-11-13T09:06:43.901Z,3.00
2022-11-13T09:07:43.849Z,2.60
2022-11-13T09:08:43.866Z,2.60
2022-11-13T09:09:43.879Z,2.60
2022-11-13T09:10:43.895Z,3.60
2022-11-13T09:11:43.907Z,2.30
2022-11-13T09:12:43.925Z,2.50
2022-11-13T09:13:47.395Z,2.30
2022-11-13T09:14:43.952Z,2.70
2022-11-13T09:15:43.969Z,3.00
2022-11-13T09:16:43.982Z,2.70
2022-11-13T09:17:43.999Z,3.60
2022-11-13T09:18:44.015Z,2.80
2022-11-13T09:19:44.030Z,2.70
2022-11-13T09:20:44.043Z,2.80
2022-11-13T09:21:44.059Z,2.40
2022-11-13T09:22:44.071Z,2.30
2022-11-13T09:23:44.086Z,2.50
2022-11-13T09:24:44.102Z,2.20
2022-11-13T09:25:44.122Z,3.10
2022-11-13T09:26:44.131Z,2.70
2022-11-13T09:27:44.146Z,2.40
2022-11-13T09:28:44.161Z,2.50
2022-11-13T09:29:44.296Z,3.30
2022-11-13T09:30:44.191Z,3.30
2022-11-13T09:31:44.204Z,2.30
2022-11-13T09:32:44.225Z,3.30
2022-11-13T09:33:44.235Z,2.70
2022-11-13T09:34:44.246Z,2.20
2022-11-13T09:35:44.260Z,2.80
2022-11-13T09:36:44.279Z,2.70
2022-11-13T09:37:44.292Z,2.80
2022-11-13T09:38:44.306Z,3.30
2022-11-13T09:39:44.323Z,2.40
2022-11-13T09:40:44.339Z,2.60
2022-11-13T09:41:44.353Z,2.40
2022-11-13T09:42:44.366Z,3.50
2022-11-13T09:43:44.381Z,2.40
2022-11-13T09:44:44.396Z,2.60
2022-11-13T09:45:44.523Z,2.90
2022-11-13T09:46:44.425Z,3.40
2022-11-13T09:47:44.440Z,2.20
2022-11-13T09:48:44.454Z,4.00
2022-11-13T09:49:44.472Z,2.60
2022-11-13T09:50:44.483Z,2.30
2022-11-13T09:51:44.498Z,2.90
2022-11-13T09:52:44.514Z,5.00
2022-11-13T09:53:44.530Z,2.80
2022-11-13T09:54:44.542Z,2.20
2022-11-13T09:55:44.558Z,2.50
2022-11-13T09:56:44.571Z,3.70
2022-11-13T09:57:44.586Z,2.20
2022-11-13T09:58:44.601Z,2.10
2022-11-13T09:59:44.616Z,3.50
2022-11-13T10:00:44.657Z,3.00
2022-11-13T10:01:44.761Z,2.90
2022-11-13T10:02:44.661Z,2.50
2022-11-13T10:04:03.401Z,2.40
2022-11-13T10:04:44.689Z,2.30
2022-11-13T10:05:44.706Z,3.30
2022-11-13T10:06:44.769Z,2.70
2022-11-13T10:07:44.738Z,2.60
2022-11-13T10:08:44.752Z,3.00
2022-11-13T10:09:44.764Z,2.80
2022-11-13T10:10:44.777Z,2.40
2022-11-13T10:11:44.791Z,3.60
2022-11-13T10:12:44.808Z,3.00
2022-11-13T10:13:44.822Z,2.80
2022-11-13T10:14:44.837Z,2.60
2022-11-13T10:15:44.851Z,2.30
2022-11-13T10:16:44.867Z,2.30
2022-11-13T10:17:44.997Z,3.40
2022-11-13T10:18:44.897Z,2.40
2022-11-13T10:19:44.910Z,2.70
2022-11-13T10:20:44.925Z,2.90
2022-11-13T10:21:44.941Z,2.50
2022-11-13T10:22:44.955Z,2.90
2022-11-13T10:23:44.968Z,2.80
2022-11-13T10:24:44.982Z,3.10
2022-11-13T10:25:45.000Z,2.80
2022-11-13T10:26:45.017Z,2.10
2022-11-13T10:27:45.073Z,2.70
2022-11-13T10:28:52.172Z,2.30
2022-11-13T10:29:48.965Z,3.10
2022-11-13T10:30:45.074Z,2.70
2022-11-13T10:31:45.089Z,3.30
2022-11-13T10:32:45.105Z,2.60
2022-11-13T10:33:45.233Z,2.30
2022-11-13T10:34:45.132Z,2.60
2022-11-13T10:35:45.147Z,2.10
2022-11-13T10:36:45.162Z,2.70
2022-11-13T10:37:45.176Z,2.50
2022-11-13T10:38:45.190Z,2.40
2022-11-13T10:39:45.206Z,2.10
2022-11-13T10:40:45.223Z,2.10
2022-11-13T10:41:45.235Z,3.30
2022-11-13T10:42:45.248Z,2.30
2022-11-13T10:43:45.263Z,2.40
2022-11-13T10:44:45.279Z,2.50
2022-11-13T10:45:45.295Z,2.40
2022-11-13T10:46:45.310Z,3.70
2022-11-13T10:48:03.223Z,2.20
2022-11-13T10:48:45.338Z,2.70
2022-11-13T10:49:45.470Z,3.50
2022-11-13T10:50:45.369Z,2.90
2022-11-13T10:51:45.384Z,2.30
2022-11-13T10:52:45.398Z,2.60
2022-11-13T10:53:45.413Z,3.20
2022-11-13T10:54:45.430Z,2.40
2022-11-13T10:55:45.442Z,1.90
2022-11-13T10:56:45.459Z,2.20
2022-11-13T10:57:47.211Z,2.20
2022-11-13T10:58:45.488Z,3.00
2022-11-13T10:59:45.506Z,2.80
2022-11-13T11:00:45.599Z,1.80
2022-11-13T11:01:45.531Z,2.90
2022-11-13T11:02:45.545Z,2.00
2022-11-13T11:03:45.560Z,2.80
2022-11-13T11:04:45.575Z,2.00
2022-11-13T11:05:45.703Z,2.60
2022-11-13T11:07:45.630Z,2.50
2022-11-13T11:08:45.637Z,2.80
2022-11-13T11:09:45.649Z,3.10
2022-11-13T11:10:45.663Z,2.30
2022-11-13T11:11:45.679Z,2.60
2022-11-13T11:12:45.691Z,3.10
2022-11-13T11:13:45.706Z,2.50
2022-11-13T11:14:45.719Z,3.00
2022-11-13T11:15:45.741Z,2.50
2022-11-13T11:16:45.751Z,2.30
2022-11-13T11:17:45.765Z,1.80
2022-11-13T11:18:45.781Z,2.20
2022-11-13T11:19:45.798Z,2.40
2022-11-13T11:20:45.811Z,2.30
2022-11-13T11:21:45.938Z,2.20
2022-11-13T11:22:45.839Z,2.40
2022-11-13T11:23:45.857Z,2.20
2022-11-13T11:24:45.871Z,2.30
2022-11-13T11:25:45.885Z,2.70
2022-11-13T11:26:45.900Z,2.50
2022-11-13T11:27:45.916Z,2.40
2022-11-13T11:28:45.929Z,2.80
2022-11-13T11:29:45.946Z,2.10
2022-11-13T11:30:45.960Z,2.50
2022-11-13T11:31:45.976Z,3.60
2022-11-13T11:32:45.990Z,3.50
2022-11-13T11:33:46.004Z,2.40
2022-11-13T11:34:46.018Z,3.00
2022-11-13T11:35:46.033Z,2.50
2022-11-13T11:36:46.050Z,3.20
2022-11-13T11:37:46.260Z,2.80
2022-11-13T11:38:46.079Z,2.00
2022-11-13T11:39:46.092Z,2.00
2022-11-13T11:40:46.108Z,2.50
2022-11-13T11:41:46.122Z,3.00
2022-11-13T11:42:46.145Z,2.40
2022-11-13T11:43:46.152Z,2.80
2022-11-13T11:44:46.174Z,2.20
2022-11-13T11:45:46.188Z,3.40
2022-11-13T11:46:46.943Z,3.30
2022-11-13T11:47:46.212Z,3.00
2022-11-13T11:48:46.227Z,2.40
2022-11-13T11:49:46.242Z,2.80
2022-11-13T11:50:46.264Z,2.30
2022-11-13T11:51:46.271Z,2.20
2022-11-13T11:52:46.286Z,2.40
2022-11-13T11:53:46.414Z,2.60
2022-11-13T11:54:46.316Z,2.20
2022-11-13T11:55:46.332Z,3.40
2022-11-13T11:56:46.346Z,2.60
2022-11-13T11:57:46.363Z,2.40
2022-11-13T11:58:46.374Z,2.10
2022-11-13T11:59:46.390Z,2.30
2022-11-13T12:00:46.403Z,2.60
2022-11-13T12:01:46.423Z,2.30
2022-11-13T12:02:46.434Z,2.10
2022-11-13T12:03:46.447Z,2.40
2022-11-13T12:04:46.482Z,2.60
2022-11-13T12:05:46.479Z,3.30
2022-11-13T12:06:46.602Z,4.40
2022-11-13T12:07:46.517Z,2.20
2022-11-13T12:08:46.523Z,2.20
2022-11-13T12:09:46.654Z,2.20
2022-11-13T12:10:46.552Z,2.50
2022-11-13T12:11:46.568Z,2.10
2022-11-13T12:12:46.582Z,2.60
2022-11-13T12:13:46.598Z,2.50
2022-11-13T12:14:46.610Z,3.10
2022-11-13T12:15:46.629Z,2.60
2022-11-13T12:16:46.643Z,2.40
2022-11-13T12:17:46.657Z,2.20
2022-11-13T12:18:46.672Z,2.40
2022-11-13T12:19:46.687Z,2.50
2022-11-13T12:20:46.704Z,2.40
2022-11-13T12:21:46.718Z,2.80
2022-11-13T12:22:46.733Z,2.20
2022-11-13T12:23:46.747Z,2.20
2022-11-13T12:24:46.762Z,2.80
2022-11-13T12:25:46.894Z,2.40
2022-11-13T12:26:46.791Z,2.40
2022-11-13T12:27:46.807Z,2.60
2022-11-13T12:28:46.823Z,3.00
2022-11-13T12:29:46.841Z,2.10
2022-11-13T12:30:46.853Z,2.50
2022-11-13T12:31:46.871Z,2.30
2022-11-13T12:32:46.881Z,2.20
2022-11-13T12:33:46.896Z,2.60
2022-11-13T12:34:46.914Z,2.30
2022-11-13T12:35:46.926Z,2.10
2022-11-13T12:36:46.942Z,2.40
2022-11-13T12:37:46.958Z,3.50
2022-11-13T12:38:46.972Z,2.60
2022-11-13T12:39:46.986Z,2.20
2022-11-13T12:40:47.001Z,1.80
2022-11-13T12:41:47.143Z,3.20
2022-11-13T12:42:47.030Z,2.10
2022-11-13T12:43:47.050Z,2.60
2022-11-13T12:44:47.060Z,2.50
2022-11-13T12:45:47.078Z,2.60
2022-11-13T12:46:47.092Z,2.10
2022-11-13T12:47:47.106Z,2.60
2022-11-13T12:48:47.118Z,2.60
2022-11-13T12:49:47.136Z,2.50
2022-11-13T12:50:47.152Z,2.00
2022-11-13T12:51:47.167Z,2.80
2022-11-13T12:52:47.181Z,1.90
2022-11-13T12:53:47.199Z,2.40
2022-11-13T12:54:47.210Z,2.20
2022-11-13T12:55:47.226Z,2.30
2022-11-13T12:56:47.242Z,2.60
2022-11-13T12:57:47.369Z,2.80
2022-11-13T12:59:03.501Z,2.70
2022-11-13T12:59:47.285Z,2.20
2022-11-13T13:00:47.301Z,2.00
2022-11-13T13:01:47.373Z,2.00
2022-11-13T13:02:47.331Z,2.30
2022-11-13T13:03:47.347Z,2.30
2022-11-13T13:04:47.363Z,2.50
2022-11-13T13:05:47.376Z,2.20
2022-11-13T13:06:47.461Z,2.10
2022-11-13T13:07:47.405Z,2.40
2022-11-13T13:08:47.422Z,2.10
2022-11-13T13:09:47.438Z,2.10
2022-11-13T13:10:47.452Z,3.60
2022-11-13T13:11:47.466Z,3.00
2022-11-13T13:12:47.482Z,2.30
2022-11-13T13:13:47.614Z,2.10
2022-11-13T13:14:47.512Z,3.10
2022-11-13T13:15:47.530Z,2.20
2022-11-13T13:16:47.541Z,2.30
2022-11-13T13:17:47.557Z,3.00
2022-11-13T13:18:47.573Z,2.10
2022-11-13T13:19:47.585Z,2.50